Nearby METAR Reports

 

KLWC - Lawrence, Kansas USA
Distance from station: S 12mi, 20km
Updated: 01/22/2018 2:52am
Few Clouds
Few Clouds
 Wind from SW
Wind: SW 6 mph , 9 km/h
Temperature: 39°F , 4°C
Wind Chill: 35°F , 2°C
Dew Point: 37°F , 3°C
Humidity: 93%
Barometer: 29.47 inHg , 998 hPa
Clouds: Few Clouds
Visibility: 9 miles , 14 km
Cloud details: Few Clouds 3100 ft
2018/01/22 08:52 KLWC 220852Z AUTO 23005KT 9SM FEW031 04/03 A2947 RMK AO2 SLP977 60000 T00440033 56024
KTOP - Topeka/Billard, Kansas USA
Distance from station: WSW 23mi, 37km
Updated: 01/22/2018 2:53am
Clear
Clear
 Wind from SW
Wind: SW 5 mph , 7 km/h
Temperature: 39°F , 4°C
Wind Chill: 35°F , 2°C
Dew Point: 39°F , 4°C
Humidity: 100%
Barometer: 29.48 inHg , 998.3 hPa
Clouds: Clear
Visibility: 7 miles , 11 km
2018/01/22 08:53 KTOP 220853Z AUTO 23004KT 7SM CLR 04/04 A2948 RMK AO2 SLP981 60000 T00390039 55015
 
KMCI - Kansas City Intl, Missouri USA
Distance from station: ENE 28mi, 45km
Updated: 01/22/2018 3:40am
Fog, Overcast
Fog, Overcast
 Wind from WSW
Wind: WSW 9 mph , 15 km/h
Temperature: 43°F , 6°C
Wind Chill: 38°F , 3°C
Dew Point: 41°F , 5°C
Humidity: 93%
Barometer: 29.41 inHg , 995.9 hPa
Summary: Fog
Clouds: Overcast
Visibility: 1/4 mile , 0.4 km
Cloud details: Mostly cloudy 300 ft
Mostly cloudy 2300 ft
Overcast 3000 ft
2018/01/22 09:40 KMCI 220940Z 24008KT 1/4SM R19R/1000V1800FT FG BKN003 BKN023 OVC030 06/05 A2941 RMK AO2 TWR VIS 3 T00610050
KFOE - Topeka/Forbes, Kansas USA
Distance from station: SW 29mi, 46km
Updated: 01/22/2018 2:53am
Clear
Clear
 Wind from WSW
Wind: WSW 14 mph , 22 km/h
Temperature: 39°F , 4°C
Wind Chill: 31°F , -1°C
Dew Point: 36°F , 2°C
Humidity: 87%
Barometer: 29.47 inHg , 998 hPa
Clouds: Clear
Visibility: 8 miles , 13 km
2018/01/22 08:53 KFOE 220853Z AUTO 24012KT 8SM CLR 04/02 A2947 RMK AO2 SLP978 60000 T00390022 56014
 
KIXD - Olathe/Industrial, Kansas USA
Distance from station: SE 32mi, 52km
Updated: 01/22/2018 3:10am
Mist, Clear
Mist, Clear
 Wind from SW
Wind: SW 9 mph , 15 km/h
Temperature: 39°F , 4°C
Wind Chill: 33°F , 1°C
Dew Point: 39°F , 4°C
Humidity: 100%
Barometer: 29.46 inHg , 997.6 hPa
Summary: Mist
Clouds: Clear
Visibility: 3 miles , 5 km
2018/01/22 09:10 KIXD 220910Z AUTO 22008KT 3SM BR CLR 04/04 A2946 RMK AO2 T00440044
KMKC - Kansas City/Dntn, Missouri USA
Distance from station: E 35mi, 56km
Updated: 01/22/2018 2:54am
Partly cloudy
Partly cloudy
 Wind from SW
Wind: SW 6 mph , 9 km/h
Temperature: 48°F , 9°C
Wind Chill: 45°F , 7°C
Dew Point: 46°F , 8°C
Humidity: 94%
Barometer: 29.44 inHg , 997 hPa
Clouds: Partly cloudy
Visibility: 10 miles , 16 km
Cloud details: Partly cloudy 1400 ft
Partly cloudy 2300 ft
2018/01/22 08:54 KMKC 220854Z 22005KT 10SM SCT014 SCT023 09/08 A2944 RMK AO2 SLP966 60009 T00940078 55025
 
KMHK - Manhattan, Kansas USA
Distance from station: W 75mi, 120km
Updated: 01/22/2018 3:01am
Mist, Overcast
Mist, Overcast
 Wind from SW
Wind: SW 10 mph , 17 km/h
Temperature: 37°F , 3°C
Wind Chill: 30°F , -1°C
Dew Point: 36°F , 2°C
Humidity: 93%
Barometer: 29.50 inHg , 999 hPa
Summary: Mist
Clouds: Overcast
Visibility: 6 miles , 10 km
Cloud details: Mostly cloudy 800 ft
Overcast 1100 ft
2018/01/22 09:01 KMHK 220901Z AUTO 22009KT 6SM BR BKN008 OVC011 03/02 A2950 RMK AO2 T00280017
KFRI - Ft Riley/Marshal, Kansas, USA
Distance from station: W 83mi, 133km
Updated: 01/22/2018 3:41am
Haze, Overcast
Haze, Overcast
 Wind from SW
Wind: SW 5 mph , 7 km/h
Temperature: 34°F , 1°C
Wind Chill: 29°F , -2°C
Dew Point: 32°F , 0°C
Humidity: 93%
Barometer: 29.48 inHg , 998.3 hPa
Summary: Haze
Clouds: Overcast
Visibility: 6 miles , 10 km
Cloud details: Overcast 400 ft
2018/01/22 09:41 KFRI 220941Z COR 22004KT 6SM HZ OVC004 01/00 A2948 RMK AO2A SLPNO ALSTG ESTMD $ COR 0942
 
KOMA - Omaha, Nebraska USA
Distance from station: N 148mi, 239km
Updated: 01/22/2018 2:52am
Overcast
Overcast
 Wind from N
Wind: N 15 mph , 24 km/h, Gust: 26 mph , 43 km/h
Temperature: 37°F , 3°C
Wind Chill: 28°F , -2°C
Dew Point: 36°F , 2°C
Humidity: 93%
Barometer: 29.46 inHg , 997.6 hPa
Clouds: Overcast
Visibility: 10 miles , 16 km
Cloud details: Overcast 1300 ft
2018/01/22 08:52 KOMA 220852Z 36013G23KT 10SM OVC013 03/02 A2946 RMK AO2 SLP981 60010 T00280017 56048
KICT - Wichita, Kansas USA
Distance from station: SW 176mi, 283km
Updated: 01/22/2018 2:53am
Mostly cloudy
Mostly cloudy
 Wind from SW
Wind: SW 13 mph , 20 km/h
Temperature: 36°F , 2°C
Wind Chill: 27°F , -3°C
Dew Point: 32°F , 0°C
Humidity: 87%
Barometer: 29.53 inHg , 1000 hPa
Clouds: Mostly cloudy
Visibility: 10 miles , 16 km
Cloud details: Mostly cloudy 2100 ft
Mostly cloudy 13000 ft
2018/01/22 08:53 KICT 220853Z 22011KT 10SM BKN021 BKN130 02/00 A2953 RMK AO2 SLP000 T00220000 56010
 
KDSM - Des Moines, Iowa USA
Distance from station: NNE 186mi, 300km
Updated: 01/22/2018 2:54am
Overcast
Overcast
 Wind from NNE
Wind: NNE 14 mph , 22 km/h
Temperature: 39°F , 4°C
Wind Chill: 31°F , -1°C
Dew Point: 37°F , 3°C
Humidity: 93%
Barometer: 29.50 inHg , 999 hPa
Clouds: Overcast
Visibility: 9 miles , 14 km
Cloud details: Overcast 200 ft
2018/01/22 08:54 KDSM 220854Z 02012KT 9SM OVC002 04/03 A2950 RMK AO2 SLP996 60024 T00390033 56036 $
KGLD - Goodland, Kansas USA
Distance from station: W 380mi, 611km
Updated: 01/22/2018 3:38am
Freezing fog, Overcast
Freezing fog, Overcast
 Wind from NNW
Wind: NNW 40 mph , 65 km/h, Gust: 53 mph , 85 km/h
Temperature: 27°F , -3°C
Wind Chill: 9°F , -13°C
Dew Point: 27°F , -3°C
Humidity: 100%
Barometer: 29.74 inHg , 1007.1 hPa
Summary: Freezing Fog
Clouds: Overcast
Visibility: 1/4 mile , 0.4 km
Cloud details: Partly cloudy 900 ft
Mostly cloudy 1400 ft
Overcast 2200 ft
2018/01/22 09:38 KGLD 220938Z AUTO 33035G46KT 1/4SM FZFG SCT009 BKN014 OVC022 M03/M03 A2974 RMK AO2 PK WND 33049/0914 T10281033 PWINO FZRANO $
 
KOKC - Oklahoma City, Oklahoma USA
Distance from station: SSW 288mi, 463km
Updated: 01/22/2018 2:52am
Few Clouds
Few Clouds
 Wind from W
Wind: W 21 mph , 33 km/h
Temperature: 37°F , 3°C
Wind Chill: 26°F , -3°C
Dew Point: 27°F , -3°C
Humidity: 65%
Barometer: 29.77 inHg , 1008.1 hPa
Clouds: Few Clouds
Visibility: 10 miles , 16 km
Cloud details: Few Clouds 13000 ft
Few Clouds 25000 ft
2018/01/22 08:52 KOKC 220852Z 26018KT 10SM FEW130 FEW250 03/M03 A2977 RMK AO2 PK WND 27026/0826 SLP076 T00331033 51009
KSTL - St Loius, Missouri USA
Distance from station: E 288mi, 463km
Updated: 01/22/2018 3:17am
Heavy rain, Mist, Overcast
Heavy rain, Mist, Overcast
 Wind from SSE
Wind: SSE 9 mph , 15 km/h
Temperature: 55°F , 13°C
Dew Point: 55°F , 13°C
Humidity: 100%
Barometer: 29.64 inHg , 1003.7 hPa
Summary: Heavy rain, Mist
Clouds: Overcast
Visibility: 4 miles , 6 km
Cloud details: Mostly cloudy 5000 ft
Overcast 7000 ft
2018/01/22 09:17 KSTL 220917Z 16008KT 4SM +RA BR BKN050 OVC070 13/13 A2964 RMK AO2 LTG DSNT E AND SE TSE08 P0012 T01280128
 
KDFW - Dallas/Ft Worth, Texas USA
Distance from station: SSW 452mi, 728km
Updated: 01/22/2018 2:53am
Clear
Clear
 Wind from WNW
Wind: WNW 20 mph , 31 km/h, Gust: 29 mph , 46 km/h
Temperature: 55°F , 13°C
Dew Point: 18°F , -8°C
Humidity: 23%
Barometer: 29.85 inHg , 1010.8 hPa
Clouds: Clear
Visibility: 10 miles , 16 km
2018/01/22 08:53 KDFW 220853Z 29017G25KT 10SM CLR 13/M08 A2985 RMK AO2 SLP103 FROPA T01331083 53012